createdAt,value
2023-01-10T06:50:22.685Z,4.20
2023-01-10T06:53:24.423Z,4.30
2023-01-10T06:56:26.302Z,4.70
2023-01-10T06:59:28.436Z,4.90
2023-01-10T07:02:31.043Z,5.00
2023-01-10T07:05:34.983Z,5.00
2023-01-10T07:08:39.213Z,5.00
2023-01-10T07:11:41.544Z,5.10
2023-01-10T07:14:44.264Z,5.10
2023-01-10T07:17:46.739Z,5.40
2023-01-10T07:20:49.283Z,5.40
2023-01-10T07:23:52.003Z,5.20
2023-01-10T07:26:56.622Z,5.30
2023-01-10T07:30:00.678Z,5.00
2023-01-10T07:33:04.347Z,5.00
2023-01-10T07:36:07.653Z,4.90
2023-01-10T07:39:09.881Z,4.90
2023-01-10T07:42:12.507Z,4.80
2023-01-10T07:45:14.574Z,4.90
2023-01-10T07:48:16.526Z,5.00
2023-01-10T07:51:18.588Z,5.00
2023-01-10T07:54:21.217Z,5.10
2023-01-10T07:57:23.317Z,5.20
2023-01-10T08:00:25.763Z,5.10
2023-01-10T08:03:28.378Z,5.20
2023-01-10T08:06:30.384Z,5.20
2023-01-10T08:09:32.173Z,5.30
2023-01-10T08:12:34.537Z,5.50
2023-01-10T08:15:37.546Z,5.50
2023-01-10T08:18:42.531Z,5.50
2023-01-10T08:21:44.585Z,5.70
2023-01-10T08:24:46.327Z,5.70
2023-01-10T08:27:48.312Z,5.90
2023-01-10T08:30:55.638Z,5.90
2023-01-10T08:33:57.894Z,5.90
2023-01-10T08:36:59.794Z,6.00
2023-01-10T08:40:02.046Z,6.00
2023-01-10T08:43:07.921Z,6.00
2023-01-10T08:46:10.780Z,6.00
2023-01-10T08:49:12.836Z,6.30
2023-01-10T08:52:15.042Z,6.40
2023-01-10T08:55:18.532Z,6.40
2023-01-10T08:58:21.131Z,6.40
2023-01-10T09:01:23.672Z,6.40
2023-01-10T09:04:28.698Z,6.80
2023-01-10T09:07:31.083Z,7.20
2023-01-10T09:10:33.474Z,7.10
2023-01-10T09:13:37.574Z,7.00
2023-01-10T09:16:40.202Z,6.80
2023-01-10T09:19:42.161Z,6.60
2023-01-10T09:22:44.132Z,6.60
2023-01-10T09:25:48.364Z,6.40
2023-01-10T09:28:50.232Z,6.90
2023-01-10T09:31:52.060Z,7.10
2023-01-10T09:34:54.040Z,7.50
2023-01-10T09:37:58.368Z,8.00
2023-01-10T09:41:12.379Z,7.80
2023-01-10T09:44:21.362Z,7.30
2023-01-10T09:48:01.909Z,7.00
2023-01-10T09:51:39.463Z,7.00
2023-01-10T09:54:43.715Z,6.80
2023-01-10T09:57:46.179Z,7.00
2023-01-10T10:00:56.348Z,6.70
2023-01-10T10:04:04.666Z,6.50
2023-01-10T10:07:13.935Z,6.60
2023-01-10T10:10:21.878Z,6.40
2023-01-10T10:14:03.633Z,6.30
2023-01-10T10:17:21.814Z,6.40
2023-01-10T10:20:36.069Z,6.50
2023-01-10T10:24:17.749Z,6.50
2023-01-10T10:27:31.709Z,6.80
2023-01-10T10:30:57.200Z,6.60
2023-01-10T10:34:37.836Z,6.30
2023-01-10T10:37:45.870Z,6.20
2023-01-10T10:40:50.479Z,6.40
2023-01-10T10:43:55.181Z,6.60
2023-01-10T10:47:02.659Z,7.20
2023-01-10T10:50:33.757Z,7.60
2023-01-10T10:53:36.654Z,7.30
2023-01-10T10:56:39.009Z,7.00
2023-01-10T10:59:44.824Z,6.80
2023-01-10T11:02:53.567Z,6.80
2023-01-10T11:05:59.367Z,6.90
2023-01-10T11:09:05.307Z,7.40
2023-01-10T11:12:15.069Z,7.60
2023-01-10T11:15:39.396Z,8.40
2023-01-10T11:18:41.766Z,8.50
2023-01-10T11:21:49.447Z,8.90
2023-01-10T11:24:56.407Z,8.90
2023-01-10T11:28:01.341Z,8.60
2023-01-10T11:31:03.968Z,9.60
2023-01-10T11:34:19.166Z,8.40
2023-01-10T11:37:27.142Z,8.60
2023-01-10T11:40:31.415Z,9.00
2023-01-10T11:43:34.609Z,8.00
2023-01-10T11:46:36.460Z,8.30
2023-01-10T11:49:40.819Z,8.40
2023-01-10T11:52:45.859Z,8.10
2023-01-10T11:55:48.824Z,7.90
2023-01-10T11:58:50.773Z,8.00
2023-01-10T12:02:12.332Z,8.30
2023-01-10T12:05:20.614Z,7.90
2023-01-10T12:08:27.017Z,7.80
2023-01-10T12:11:31.871Z,7.70
2023-01-10T12:14:33.575Z,7.80
2023-01-10T12:17:37.011Z,7.60
2023-01-10T12:20:48.668Z,7.60
2023-01-10T12:23:53.142Z,7.30
2023-01-10T12:26:56.322Z,7.20
2023-01-10T12:30:06.504Z,7.20
2023-01-10T12:33:15.783Z,7.20
2023-01-10T12:36:41.551Z,7.40
2023-01-10T12:39:49.234Z,7.50
2023-01-10T12:43:26.852Z,7.20
2023-01-10T12:47:04.826Z,7.40
2023-01-10T12:50:22.896Z,7.80
2023-01-10T12:53:45.865Z,8.20
2023-01-10T12:56:53.517Z,8.10
2023-01-10T13:00:00.559Z,7.90
2023-01-10T13:03:11.804Z,8.00
2023-01-10T13:06:30.921Z,7.90
2023-01-10T13:09:35.223Z,7.90
2023-01-10T13:12:42.885Z,7.70
2023-01-10T13:15:58.326Z,7.60
2023-01-10T13:19:19.986Z,7.60
2023-01-10T13:22:23.667Z,7.90
2023-01-10T13:25:35.091Z,7.50
2023-01-10T13:28:40.780Z,7.40
2023-01-10T13:31:44.296Z,7.50
2023-01-10T13:34:46.764Z,7.40
2023-01-10T13:37:55.610Z,7.50
2023-01-10T13:41:01.009Z,7.60
2023-01-10T13:44:13.734Z,7.60
2023-01-10T13:47:45.119Z,7.70
2023-01-10T13:50:50.573Z,7.70
2023-01-10T13:54:19.760Z,7.60
2023-01-10T13:57:50.600Z,7.20
2023-01-10T14:01:18.463Z,7.20
2023-01-10T14:04:23.897Z,7.20
2023-01-10T14:07:33.428Z,7.30
2023-01-10T14:10:35.286Z,7.20
2023-01-10T14:13:37.658Z,7.30
2023-01-10T14:19:44.075Z,7.10
2023-01-10T14:22:58.799Z,7.00
2023-01-10T14:26:00.787Z,7.00
2023-01-10T14:29:08.835Z,7.00
2023-01-10T14:32:27.237Z,6.90
2023-01-10T14:35:36.047Z,6.90
2023-01-10T14:38:39.277Z,7.00
2023-01-10T14:41:48.014Z,7.00
2023-01-10T14:45:20.687Z,7.10
2023-01-10T14:48:30.066Z,7.20
2023-01-10T14:51:32.448Z,7.30
2023-01-10T14:54:34.160Z,7.20
2023-01-10T14:57:36.043Z,7.10
2023-01-10T15:00:37.823Z,6.90
2023-01-10T15:03:46.173Z,6.80
2023-01-10T15:06:57.865Z,6.80
2023-01-10T15:10:02.868Z,6.70
2023-01-10T15:13:06.350Z,6.70
2023-01-10T15:16:17.499Z,6.70
2023-01-10T15:19:22.004Z,6.70
2023-01-10T15:22:33.668Z,6.70
2023-01-10T15:25:38.341Z,6.70
2023-01-10T15:28:40.369Z,6.70
2023-01-10T15:31:42.831Z,6.80
2023-01-10T15:34:49.912Z,6.50
2023-01-10T15:37:57.190Z,6.60
2023-01-10T15:41:02.603Z,6.50
2023-01-10T15:44:33.846Z,6.50
2023-01-10T15:47:41.332Z,6.40
2023-01-10T15:50:55.544Z,6.40
2023-01-10T15:54:19.831Z,6.30
2023-01-10T15:57:32.899Z,6.30
2023-01-10T16:00:34.700Z,6.20
2023-01-10T16:03:47.601Z,6.20
2023-01-10T16:06:53.576Z,6.00
2023-01-10T16:10:24.474Z,6.10
2023-01-10T16:13:27.425Z,6.00
2023-01-10T16:16:29.424Z,6.00
2023-01-10T16:19:31.339Z,5.90
2023-01-10T16:22:35.155Z,6.00
2023-01-10T16:25:38.979Z,6.00
2023-01-10T16:28:40.849Z,6.00
2023-01-10T16:31:42.798Z,6.10
2023-01-10T16:34:44.521Z,6.00
2023-01-10T16:37:47.540Z,6.10
2023-01-10T16:40:54.999Z,6.10
2023-01-10T16:43:56.848Z,6.10
2023-01-10T16:46:59.233Z,6.10
2023-01-10T16:50:01.114Z,6.00
2023-01-10T16:53:06.137Z,6.00
2023-01-10T16:56:11.937Z,5.90
2023-01-10T16:59:16.051Z,5.70
